Time;durP1;ratioP1;P1;durP2;ratioP2;P2;SDS_P1;SDS_P2;PMS_P1;PMS_P2;Temp;Humidity;BMP_temperature;BMP_pressure;BME280_temperature;BME280_humidity;BME280_pressure;Samples;Min_cycle;Max_cycle;Signal;HPM_P1;HPM_P2
2022/09/15 00:01:22;;;;;;;52.45;24.98;;;16.20;99.90;;;;;;5034272;28;20611;-67
2022/09/15 00:03:49;;;;;;;41.58;22.48;;;16.20;99.90;;;;;;5032364;28;20037;-66
2022/09/15 00:06:15;;;;;;;33.42;20.65;;;16.20;99.90;;;;;;5042491;28;20025;-67
2022/09/15 00:08:41;;;;;;;36.00;20.92;;;16.10;99.90;;;;;;5045079;28;20032;-66
2022/09/15 00:11:17;;;;;;;36.10;21.60;;;16.10;99.90;;;;;;5037681;28;20044;-67
2022/09/15 00:13:43;;;;;;;40.28;21.75;;;16.10;99.90;;;;;;5032294;28;20025;-66
2022/09/15 00:16:11;;;;;;;34.33;22.63;;;16.10;99.90;;;;;;5043402;28;20038;-66
2022/09/15 00:18:38;;;;;;;41.58;22.13;;;16.10;99.90;;;;;;5045538;28;20104;-67
2022/09/15 00:21:05;;;;;;;34.25;21.27;;;16.10;99.90;;;;;;5037101;28;20401;-66
2022/09/15 00:23:32;;;;;;;37.45;20.98;;;16.10;99.90;;;;;;5049282;28;20868;-67
2022/09/15 00:25:57;;;;;;;42.00;22.98;;;16.10;99.90;;;;;;5047355;28;20030;-66
2022/09/15 00:28:23;;;;;;;40.95;21.70;;;16.10;99.90;;;;;;5043637;28;20021;-66
2022/09/15 00:30:51;;;;;;;32.00;20.60;;;16.00;99.90;;;;;;5038426;28;20151;-66
2022/09/15 00:33:18;;;;;;;34.85;23.15;;;16.00;99.90;;;;;;5048924;28;20025;-66
2022/09/15 00:35:46;;;;;;;36.47;20.70;;;16.10;99.90;;;;;;5037843;28;20524;-66
2022/09/15 00:38:13;;;;;;;32.33;20.60;;;16.00;99.90;;;;;;5045012;28;20021;-66
2022/09/15 00:40:44;;;;;;;35.92;22.58;;;16.00;99.90;;;;;;5041589;28;20021;-66
2022/09/15 00:43:11;;;;;;;28.98;20.50;;;16.00;99.90;;;;;;5037863;28;20041;-66
2022/09/15 00:45:37;;;;;;;37.10;21.70;;;16.00;99.90;;;;;;5037655;28;20031;-67
2022/09/15 00:48:04;;;;;;;32.15;20.90;;;16.10;99.90;;;;;;5041635;28;20029;-66
2022/09/15 00:50:31;;;;;;;39.00;20.75;;;16.00;99.90;;;;;;5042692;28;20029;-66
2022/09/15 00:53:00;;;;;;;32.92;19.58;;;16.00;99.90;;;;;;5042337;28;20010;-66
2022/09/15 00:55:41;;;;;;;34.03;22.20;;;16.00;99.90;;;;;;5048766;28;20033;-67
2022/09/15 00:58:13;;;;;;;35.60;22.30;;;16.00;99.90;;;;;;5040129;28;20024;-66
2022/09/15 01:00:48;;;;;;;34.67;20.92;;;16.00;99.90;;;;;;5041477;28;20470;-66
2022/09/15 01:03:14;;;;;;;36.22;20.52;;;16.00;99.90;;;;;;5046100;28;20513;-66
2022/09/15 01:05:45;;;;;;;39.33;21.85;;;16.00;99.90;;;;;;5049031;28;20112;-67
2022/09/15 01:08:21;;;;;;;41.25;22.35;;;16.00;99.90;;;;;;5044266;28;20377;-66
2022/09/15 01:10:46;;;;;;;36.58;21.42;;;15.90;99.90;;;;;;5045464;28;20051;-66
2022/09/15 01:13:14;;;;;;;35.63;21.75;;;15.90;99.90;;;;;;5036217;28;20068;-67
2022/09/15 01:15:57;;;;;;;31.73;19.90;;;15.90;99.90;;;;;;5042132;28;20025;-66
2022/09/15 01:18:35;;;;;;;38.20;21.50;;;15.90;99.90;;;;;;5032636;28;20055;-66
2022/09/15 01:21:16;;;;;;;34.83;20.92;;;15.90;99.90;;;;;;5037775;28;20033;-66
2022/09/15 01:24:14;;;;;;;31.70;20.02;;;15.90;99.90;;;;;;5035712;28;20112;-66
2022/09/15 01:27:03;;;;;;;37.05;20.83;;;15.90;99.90;;;;;;5039137;28;20055;-67
2022/09/15 01:30:01;;;;;;;36.58;22.33;;;15.90;99.90;;;;;;5044403;28;20474;-67
2022/09/15 01:33:08;;;;;;;41.33;22.08;;;15.90;99.90;;;;;;5040909;28;20051;-66
2022/09/15 01:35:57;;;;;;;38.17;21.50;;;15.90;99.90;;;;;;5032540;28;20095;-67
2022/09/15 01:38:44;;;;;;;39.20;21.60;;;15.90;99.90;;;;;;5039728;28;20027;-68
2022/09/15 01:41:17;;;;;;;39.47;23.83;;;15.90;99.90;;;;;;5036212;28;20072;-67
2022/09/15 01:43:52;;;;;;;38.45;23.30;;;15.90;99.90;;;;;;5019785;28;20043;-67
2022/09/15 01:46:20;;;;;;;40.58;22.33;;;15.90;99.90;;;;;;5032673;28;20029;-67
2022/09/15 01:48:48;;;;;;;41.08;23.63;;;15.90;99.90;;;;;;5032543;28;20104;-66
2022/09/15 01:51:15;;;;;;;38.15;22.65;;;16.00;99.90;;;;;;5029488;28;20421;-67
2022/09/15 01:53:41;;;;;;;37.50;23.50;;;16.00;99.90;;;;;;5032742;28;20109;-67
2022/09/15 01:56:09;;;;;;;38.20;22.75;;;16.00;99.90;;;;;;5032688;28;20121;-67
2022/09/15 01:58:39;;;;;;;40.72;22.80;;;16.00;99.90;;;;;;5030072;28;20104;-67
2022/09/15 02:01:14;;;;;;;40.25;23.10;;;16.00;99.90;;;;;;5032756;28;20017;-67
2022/09/15 02:03:50;;;;;;;41.40;23.73;;;16.00;99.90;;;;;;5030393;28;20041;-67
2022/09/15 02:06:24;;;;;;;39.47;22.10;;;16.00;99.90;;;;;;5029757;28;20382;-67
2022/09/15 02:08:56;;;;;;;36.35;22.42;;;16.00;99.90;;;;;;5032259;28;20032;-67
2022/09/15 02:11:29;;;;;;;40.42;22.30;;;16.00;99.90;;;;;;5032211;28;20022;-67
2022/09/15 02:14:09;;;;;;;30.73;18.65;;;16.10;99.90;;;;;;5029642;28;20116;-67
2022/09/15 02:16:36;;;;;;;39.88;23.02;;;16.00;99.90;;;;;;5029817;28;20052;-67
2022/09/15 02:19:20;;;;;;;34.08;19.98;;;16.10;99.90;;;;;;5031086;28;20374;-67
2022/09/15 02:22:06;;;;;;;54.83;24.17;;;16.10;99.90;;;;;;5032466;28;20064;-66
2022/09/15 02:24:39;;;;;;;37.17;22.35;;;16.10;99.90;;;;;;5032795;28;20052;-67
2022/09/15 02:27:10;;;;;;;47.00;23.33;;;16.10;99.90;;;;;;5032834;28;20429;-67
2022/09/15 02:29:37;;;;;;;41.10;24.08;;;16.00;99.90;;;;;;5031902;28;20021;-67
2022/09/15 02:32:05;;;;;;;38.38;22.67;;;16.10;99.90;;;;;;5032162;28;20088;-67
2022/09/15 02:34:37;;;;;;;50.50;24.50;;;16.10;99.90;;;;;;5032457;28;20060;-67
2022/09/15 02:37:04;;;;;;;39.97;22.80;;;16.00;99.90;;;;;;5032726;28;20043;-67
2022/09/15 02:39:34;;;;;;;44.08;23.75;;;16.00;99.90;;;;;;5036663;28;20022;-67
2022/09/15 02:42:01;;;;;;;39.75;22.42;;;16.00;99.90;;;;;;5035855;28;20026;-67
2022/09/15 02:44:29;;;;;;;41.08;24.48;;;16.00;99.90;;;;;;5036513;28;20045;-67
2022/09/15 02:46:59;;;;;;;39.55;23.45;;;16.00;99.90;;;;;;5035757;28;20013;-67
2022/09/15 02:49:25;;;;;;;58.92;25.95;;;15.90;99.90;;;;;;5036218;28;20097;-67
2022/09/15 02:51:50;;;;;;;51.88;25.08;;;15.90;99.90;;;;;;5036587;28;20029;-67
2022/09/15 02:54:16;;;;;;;44.50;22.60;;;15.90;99.90;;;;;;5035013;28;20033;-67
2022/09/15 02:56:42;;;;;;;36.00;22.13;;;15.90;99.90;;;;;;5035391;28;20027;-67
2022/09/15 02:59:08;;;;;;;46.63;23.50;;;16.00;99.90;;;;;;5036367;28;20032;-66
2022/09/15 03:01:33;;;;;;;40.13;22.55;;;16.00;99.90;;;;;;5034069;28;20033;-67
2022/09/15 03:04:01;;;;;;;48.00;24.02;;;15.90;99.90;;;;;;5025864;28;20049;-67
2022/09/15 03:06:33;;;;;;;42.20;23.63;;;16.00;99.90;;;;;;5027262;28;20470;-67
2022/09/15 03:09:00;;;;;;;48.43;24.80;;;16.00;99.90;;;;;;5035832;28;20025;-67
2022/09/15 03:11:27;;;;;;;47.65;24.38;;;16.00;99.90;;;;;;5036022;28;20322;-67
2022/09/15 03:13:55;;;;;;;39.20;22.65;;;16.00;99.90;;;;;;5035954;28;20033;-67
2022/09/15 03:16:21;;;;;;;36.75;21.45;;;16.00;99.90;;;;;;5035815;28;20021;-67
2022/09/15 03:18:47;;;;;;;34.97;20.10;;;16.10;99.90;;;;;;5033701;28;20029;-66
2022/09/15 03:21:14;;;;;;;39.13;21.95;;;16.10;99.90;;;;;;5035785;28;20076;-67
2022/09/15 03:23:41;;;;;;;34.17;22.23;;;16.10;99.90;;;;;;5035804;28;20052;-67
2022/09/15 03:26:08;;;;;;;35.08;21.75;;;16.10;99.90;;;;;;5035755;28;20013;-67
2022/09/15 03:28:35;;;;;;;35.70;20.92;;;16.10;99.90;;;;;;5035097;28;20025;-66
2022/09/15 03:31:01;;;;;;;37.05;20.77;;;16.10;99.90;;;;;;5013578;28;20021;-67
2022/09/15 03:33:27;;;;;;;36.50;22.13;;;16.10;99.90;;;;;;5015544;28;20151;-67
2022/09/15 03:35:53;;;;;;;33.05;21.10;;;16.10;99.90;;;;;;5015778;28;20475;-67
2022/09/15 03:38:19;;;;;;;37.50;22.50;;;16.10;99.90;;;;;;5014534;28;20022;-67
2022/09/15 03:41:00;;;;;;;34.80;22.13;;;16.00;99.90;;;;;;5023348;28;20041;-67
2022/09/15 03:43:26;;;;;;;39.90;23.15;;;16.10;99.90;;;;;;5035536;28;20021;-67
2022/09/15 03:45:53;;;;;;;38.08;21.30;;;16.10;99.90;;;;;;5034985;28;20064;-67
2022/09/15 03:48:18;;;;;;;40.78;22.70;;;16.10;99.90;;;;;;5034387;28;20025;-67
2022/09/15 03:51:08;;;;;;;35.55;21.38;;;16.00;99.90;;;;;;5035328;28;20029;-68
2022/09/15 03:53:35;;;;;;;43.58;23.67;;;16.00;99.90;;;;;;5032561;28;20033;-67
2022/09/15 03:56:21;;;;;;;41.05;22.25;;;16.00;99.90;;;;;;5032417;28;20032;-67
2022/09/15 03:58:46;;;;;;;41.85;21.73;;;16.00;99.90;;;;;;5033711;28;20052;-67
2022/09/15 04:01:12;;;;;;;37.42;20.38;;;16.00;99.90;;;;;;5034123;28;20017;-67
2022/09/15 04:03:38;;;;;;;38.00;20.63;;;15.90;99.90;;;;;;5033530;28;20029;-67
2022/09/15 04:06:04;;;;;;;39.55;22.50;;;15.90;99.90;;;;;;5034837;28;20033;-66
2022/09/15 04:08:29;;;;;;;40.05;23.48;;;15.90;99.90;;;;;;5035069;28;20112;-67
2022/09/15 04:10:55;;;;;;;41.20;21.73;;;15.90;99.90;;;;;;5032554;28;20052;-67
2022/09/15 04:13:21;;;;;;;34.75;20.02;;;15.90;99.90;;;;;;5034897;28;20489;-67
2022/09/15 04:16:00;;;;;;;34.33;21.17;;;15.90;99.90;;;;;;5034215;28;20037;-67
2022/09/15 04:18:27;;;;;;;36.17;20.77;;;15.80;99.90;;;;;;5034998;28;20100;-67
2022/09/15 04:20:52;;;;;;;39.25;21.77;;;15.80;99.90;;;;;;5034987;28;20025;-67
2022/09/15 04:23:19;;;;;;;36.72;21.80;;;15.80;99.90;;;;;;5034617;28;20033;-67
2022/09/15 04:25:54;;;;;;;37.90;20.27;;;15.80;99.90;;;;;;5034652;28;20028;-67
2022/09/15 04:28:19;;;;;;;35.78;20.05;;;15.80;99.90;;;;;;5034684;28;20025;-67
2022/09/15 04:30:45;;;;;;;33.03;19.73;;;15.70;99.90;;;;;;5034554;28;20029;-67
2022/09/15 04:33:10;;;;;;;36.55;20.00;;;15.70;99.90;;;;;;5034564;28;20038;-66
2022/09/15 04:35:36;;;;;;;32.78;19.45;;;15.70;99.90;;;;;;5034647;28;20029;-67
2022/09/15 04:38:02;;;;;;;30.83;20.95;;;15.70;99.90;;;;;;5015287;28;20030;-67
2022/09/15 04:40:27;;;;;;;34.83;19.92;;;15.70;99.90;;;;;;5030282;28;20355;-66
2022/09/15 04:42:53;;;;;;;32.83;19.48;;;15.70;99.90;;;;;;5034045;28;20055;-67
2022/09/15 04:45:19;;;;;;;31.00;20.00;;;15.70;99.90;;;;;;5033220;28;20060;-66
2022/09/15 04:47:47;;;;;;;32.88;19.73;;;15.70;99.90;;;;;;5013955;28;20390;-67
2022/09/15 04:50:12;;;;;;;31.98;19.33;;;15.70;99.90;;;;;;5014525;28;20072;-67
2022/09/15 04:52:38;;;;;;;32.58;19.80;;;15.70;99.90;;;;;;5027394;28;20428;-67
2022/09/15 04:55:04;;;;;;;31.13;19.25;;;15.70;99.90;;;;;;5034222;28;20057;-67
2022/09/15 04:57:30;;;;;;;31.10;19.55;;;15.70;99.90;;;;;;5034020;28;20031;-67
2022/09/15 04:59:55;;;;;;;29.05;18.95;;;15.60;99.90;;;;;;5033257;28;20385;-66
2022/09/15 05:02:21;;;;;;;32.65;19.80;;;15.60;99.90;;;;;;5032871;28;20461;-67
2022/09/15 05:04:50;;;;;;;41.20;20.77;;;15.60;99.90;;;;;;5034000;28;20033;-66
2022/09/15 05:07:16;;;;;;;26.85;19.23;;;15.50;99.90;;;;;;5034117;28;20018;-67
2022/09/15 05:09:42;;;;;;;33.83;18.77;;;15.60;99.90;;;;;;5033493;28;20030;-67
2022/09/15 05:12:07;;;;;;;27.92;18.08;;;15.50;99.90;;;;;;5032400;28;20029;-66
2022/09/15 05:14:33;;;;;;;32.00;17.33;;;15.60;99.90;;;;;;5032649;28;20386;-66
2022/09/15 05:16:59;;;;;;;30.80;18.92;;;15.60;99.90;;;;;;5031355;28;20021;-67
2022/09/15 05:19:24;;;;;;;33.92;20.45;;;15.60;99.90;;;;;;5033453;28;20431;-67
2022/09/15 05:21:50;;;;;;;35.58;20.98;;;15.60;99.90;;;;;;5033661;28;20176;-66
2022/09/15 05:24:16;;;;;;;33.85;20.02;;;15.60;99.90;;;;;;5032830;28;20112;-67
2022/09/15 05:26:41;;;;;;;41.38;21.35;;;15.60;99.90;;;;;;5033397;28;20108;-67
2022/09/15 05:29:07;;;;;;;42.75;21.77;;;15.60;99.90;;;;;;5033510;28;20072;-66
2022/09/15 05:31:33;;;;;;;37.28;21.80;;;15.60;99.90;;;;;;5031979;28;20032;-67
2022/09/15 05:34:04;;;;;;;34.97;24.20;;;15.60;99.90;;;;;;5033399;28;20509;-67
2022/09/15 05:36:30;;;;;;;40.00;22.25;;;15.60;99.90;;;;;;5032671;28;20037;-67
2022/09/15 05:38:56;;;;;;;32.33;20.88;;;15.60;99.90;;;;;;5032041;28;20042;-66
2022/09/15 05:41:23;;;;;;;34.25;20.92;;;15.70;99.90;;;;;;5032279;28;20021;-68
2022/09/15 05:43:49;;;;;;;36.38;22.00;;;15.70;99.90;;;;;;5031523;28;20120;-67
2022/09/15 05:46:17;;;;;;;42.00;23.45;;;15.70;99.90;;;;;;5032974;28;20022;-67
2022/09/15 05:48:44;;;;;;;33.05;20.55;;;15.70;99.90;;;;;;5032941;28;20147;-67
2022/09/15 05:51:10;;;;;;;37.65;21.80;;;15.70;99.90;;;;;;5032737;28;20063;-67
2022/09/15 05:53:36;;;;;;;40.78;23.65;;;15.70;99.90;;;;;;5032532;28;20027;-67
2022/09/15 05:56:06;;;;;;;34.75;22.55;;;15.70;99.90;;;;;;5032773;28;20021;-68
2022/09/15 05:58:32;;;;;;;54.33;26.33;;;15.70;99.90;;;;;;5031605;28;20029;-67
2022/09/15 06:01:07;;;;;;;50.83;27.17;;;15.70;99.90;;;;;;5033216;28;20021;-68
2022/09/15 06:03:33;;;;;;;42.13;23.08;;;15.70;99.90;;;;;;5033008;28;20021;-67
2022/09/15 06:06:00;;;;;;;31.88;22.55;;;15.80;99.90;;;;;;5032739;28;20021;-67
2022/09/15 06:08:30;;;;;;;40.13;24.38;;;15.80;99.90;;;;;;5032538;28;20481;-67
2022/09/15 06:11:04;;;;;;;38.05;22.23;;;15.90;99.90;;;;;;5032125;28;20478;-67
2022/09/15 06:13:30;;;;;;;35.33;23.55;;;15.90;99.90;;;;;;5031370;28;20060;-67
2022/09/15 06:16:07;;;;;;;34.20;22.15;;;15.90;99.90;;;;;;5032531;28;20065;-67
2022/09/15 06:18:36;;;;;;;33.92;22.15;;;15.90;99.90;;;;;;5032720;28;20040;-67
2022/09/15 06:21:03;;;;;;;33.85;21.75;;;16.00;99.90;;;;;;5032765;28;20070;-67
2022/09/15 06:23:29;;;;;;;35.15;22.73;;;16.00;99.90;;;;;;5032811;28;20028;-67
2022/09/15 06:25:54;;;;;;;39.65;23.35;;;16.00;99.90;;;;;;5031715;28;20030;-68
2022/09/15 06:28:20;;;;;;;37.80;23.70;;;16.00;99.90;;;;;;5031899;28;20026;-68
2022/09/15 06:30:48;;;;;;;35.00;23.42;;;16.00;99.90;;;;;;5031680;28;20112;-67
2022/09/15 06:33:14;;;;;;;38.58;24.38;;;16.10;99.90;;;;;;5030155;28;20025;-67
2022/09/15 06:35:40;;;;;;;44.45;26.45;;;16.10;99.90;;;;;;5032319;28;20029;-67
2022/09/15 06:38:06;;;;;;;45.67;26.05;;;16.10;99.90;;;;;;5032267;28;20029;-67
2022/09/15 06:40:32;;;;;;;48.10;27.83;;;16.20;99.90;;;;;;5028987;28;20026;-67
2022/09/15 06:42:58;;;;;;;42.88;26.63;;;16.20;99.90;;;;;;5031585;28;20030;-67
2022/09/15 06:45:24;;;;;;;48.92;26.55;;;16.20;99.90;;;;;;5032318;28;20528;-68
2022/09/15 06:47:51;;;;;;;50.50;29.60;;;16.20;99.90;;;;;;5032176;28;20033;-67
2022/09/15 06:50:16;;;;;;;45.40;28.92;;;16.20;99.90;;;;;;5031921;28;20104;-67
2022/09/15 06:52:42;;;;;;;41.15;27.88;;;16.30;99.90;;;;;;5032289;28;20064;-67
2022/09/15 06:55:08;;;;;;;41.28;26.83;;;16.30;99.90;;;;;;5032282;28;20056;-67
2022/09/15 06:57:34;;;;;;;37.20;23.60;;;16.30;99.90;;;;;;5030953;28;20025;-67
2022/09/15 07:00:01;;;;;;;43.45;26.38;;;16.40;99.90;;;;;;5032192;28;20091;-67
2022/09/15 07:02:26;;;;;;;42.85;28.75;;;16.50;99.90;;;;;;5032091;28;20021;-67
2022/09/15 07:04:52;;;;;;;39.08;26.67;;;16.60;99.90;;;;;;5031831;28;20048;-67
2022/09/15 07:07:17;;;;;;;40.28;26.65;;;16.60;99.90;;;;;;5031626;28;20029;-67
2022/09/15 07:09:43;;;;;;;39.65;25.58;;;16.70;99.90;;;;;;5020271;28;20025;-67
2022/09/15 07:12:09;;;;;;;37.00;24.55;;;16.70;99.90;;;;;;5030502;28;20075;-66
2022/09/15 07:14:34;;;;;;;34.92;22.27;;;16.70;99.90;;;;;;5031075;28;20467;-66
2022/09/15 07:17:00;;;;;;;37.80;24.83;;;16.70;99.90;;;;;;5031894;28;20112;-67
2022/09/15 07:19:25;;;;;;;37.70;25.63;;;16.80;99.90;;;;;;5030622;28;20022;-66
2022/09/15 07:21:51;;;;;;;34.90;24.45;;;16.80;99.90;;;;;;5031708;28;20116;-67
2022/09/15 07:24:17;;;;;;;36.75;25.02;;;16.80;99.90;;;;;;5034561;28;20423;-67
2022/09/15 07:26:43;;;;;;;36.03;22.98;;;16.80;99.90;;;;;;5035382;28;20022;-67
2022/09/15 07:29:09;;;;;;;35.40;24.15;;;16.80;99.90;;;;;;5035488;28;20043;-67
2022/09/15 07:31:36;;;;;;;35.85;23.65;;;16.80;99.90;;;;;;5034486;28;20030;-67
2022/09/15 07:34:03;;;;;;;30.83;20.95;;;16.90;99.90;;;;;;5033699;28;20039;-67
2022/09/15 07:36:30;;;;;;;37.40;26.55;;;16.90;99.90;;;;;;5033683;28;20112;-67
2022/09/15 07:38:55;;;;;;;32.05;23.33;;;16.90;99.90;;;;;;5034841;28;20456;-67
2022/09/15 07:41:24;;;;;;;33.40;23.05;;;16.90;99.90;;;;;;5034679;28;20100;-67
2022/09/15 07:43:52;;;;;;;42.10;25.48;;;16.90;99.90;;;;;;5034808;28;20041;-67
2022/09/15 07:46:19;;;;;;;38.33;23.67;;;17.00;99.90;;;;;;5034777;28;20029;-67
2022/09/15 07:48:46;;;;;;;42.58;25.00;;;17.00;99.90;;;;;;5034312;28;20029;-67
2022/09/15 07:51:13;;;;;;;49.22;26.85;;;17.10;99.90;;;;;;5033706;28;20055;-67
2022/09/15 07:53:40;;;;;;;43.03;24.63;;;17.20;99.90;;;;;;5034833;28;20022;-67
2022/09/15 07:56:06;;;;;;;37.28;25.92;;;17.20;99.90;;;;;;5034523;28;20040;-67
2022/09/15 07:58:32;;;;;;;42.80;26.52;;;17.20;99.90;;;;;;5034663;28;20021;-67
2022/09/15 08:01:07;;;;;;;41.28;25.75;;;17.30;99.90;;;;;;5034719;28;20026;-67
2022/09/15 08:03:32;;;;;;;29.95;20.95;;;17.40;99.90;;;;;;5034699;28;20072;-67
2022/09/15 08:05:59;;;;;;;35.97;22.38;;;17.40;99.90;;;;;;5034745;28;20034;-67
2022/09/15 08:08:25;;;;;;;36.58;23.02;;;17.40;99.90;;;;;;5034252;28;20033;-67
2022/09/15 08:10:51;;;;;;;32.08;21.23;;;17.50;99.90;;;;;;5034379;28;20405;-67
2022/09/15 08:13:17;;;;;;;31.00;21.70;;;17.60;99.90;;;;;;5033821;28;20493;-67
2022/09/15 08:15:44;;;;;;;29.27;20.42;;;17.70;99.90;;;;;;5034719;28;20127;-67
2022/09/15 08:18:10;;;;;;;27.83;19.65;;;17.70;99.90;;;;;;5032809;28;20463;-67
2022/09/15 08:20:40;;;;;;;25.70;17.48;;;17.70;99.90;;;;;;5033308;28;20470;-67
2022/09/15 08:23:06;;;;;;;20.92;15.77;;;17.70;99.90;;;;;;5034262;28;20067;-67
2022/09/15 08:25:32;;;;;;;23.35;15.95;;;17.60;99.90;;;;;;5033348;28;20465;-67
2022/09/15 08:27:58;;;;;;;29.05;18.33;;;17.60;99.90;;;;;;5033847;28;20029;-67
2022/09/15 08:30:25;;;;;;;31.50;18.60;;;17.50;99.90;;;;;;5034284;28;20057;-67
2022/09/15 08:32:50;;;;;;;27.38;17.85;;;17.60;99.90;;;;;;5032341;28;20385;-67
2022/09/15 08:35:16;;;;;;;30.52;20.67;;;17.70;99.90;;;;;;5032799;28;20100;-67
2022/09/15 08:37:42;;;;;;;20.05;14.85;;;17.80;99.90;;;;;;5031675;28;20025;-68
2022/09/15 08:40:16;;;;;;;20.55;15.13;;;17.80;99.90;;;;;;5034329;28;20509;-67
2022/09/15 08:42:43;;;;;;;26.90;15.30;;;17.90;99.90;;;;;;5033607;28;20029;-68
2022/09/15 08:45:24;;;;;;;26.38;17.55;;;18.00;99.90;;;;;;5033927;28;20034;-68
2022/09/15 08:47:58;;;;;;;26.92;15.32;;;18.00;99.90;;;;;;5033483;28;20448;-68
2022/09/15 08:50:27;;;;;;;19.52;12.85;;;18.10;99.90;;;;;;5029970;28;20281;-67
2022/09/15 08:53:01;;;;;;;20.30;12.07;;;18.10;99.90;;;;;;5032697;28;20462;-67
2022/09/15 08:55:37;;;;;;;19.13;14.30;;;18.10;99.90;;;;;;5032910;28;20474;-68
2022/09/15 08:58:04;;;;;;;22.67;14.93;;;18.20;99.90;;;;;;5014106;28;20044;-68
2022/09/15 09:00:31;;;;;;;23.92;14.02;;;18.20;99.90;;;;;;5014167;28;20022;-69
2022/09/15 09:02:57;;;;;;;20.08;11.32;;;18.20;99.90;;;;;;5033221;28;20470;-68
2022/09/15 09:05:44;;;;;;;18.27;10.20;;;18.20;99.90;;;;;;5032829;28;20040;-67
2022/09/15 09:08:34;;;;;;;12.38;8.25;;;18.30;99.90;;;;;;5031946;28;20116;-68
2022/09/15 09:11:34;;;;;;;13.02;10.40;;;18.20;99.90;;;;;;5032411;28;20069;-67
2022/09/15 09:14:32;;;;;;;10.23;6.82;;;18.30;99.90;;;;;;5007146;28;20387;-69
2022/09/15 09:17:13;;;;;;;9.60;7.15;;;18.30;99.90;;;;;;5025128;28;20049;-67
2022/09/15 09:19:56;;;;;;;15.05;6.88;;;18.30;99.90;;;;;;5040235;28;20028;-67
2022/09/15 09:22:24;;;;;;;12.15;9.25;;;18.30;99.90;;;;;;5038337;28;20117;-68
2022/09/15 09:24:54;;;;;;;12.77;7.38;;;18.40;99.90;;;;;;5042058;28;20156;-67
2022/09/15 09:27:23;;;;;;;12.27;6.40;;;18.40;99.90;;;;;;5046677;28;20032;-67
2022/09/15 09:30:13;;;;;;;10.10;6.60;;;18.50;99.90;;;;;;5034313;28;20139;-67
2022/09/15 09:32:48;;;;;;;17.15;7.38;;;18.50;99.90;;;;;;5043097;28;20059;-68
2022/09/15 09:35:32;;;;;;;12.85;7.15;;;18.60;99.90;;;;;;5033164;28;20029;-67
2022/09/15 09:38:01;;;;;;;10.20;5.00;;;18.70;99.90;;;;;;5037519;28;20107;-69
2022/09/15 09:40:29;;;;;;;12.38;6.63;;;18.60;99.90;;;;;;5045328;28;20071;-68
2022/09/15 09:42:55;;;;;;;7.93;5.13;;;18.60;99.90;;;;;;5031817;28;20025;-67
2022/09/15 09:45:21;;;;;;;10.73;6.00;;;18.60;99.90;;;;;;5046022;28;20039;-67
2022/09/15 09:47:47;;;;;;;12.13;5.53;;;18.60;99.90;;;;;;5035433;28;20389;-67
2022/09/15 09:50:38;;;;;;;13.55;6.75;;;18.50;99.90;;;;;;5045499;28;20025;-67
2022/09/15 09:53:15;;;;;;;13.35;5.80;;;18.60;99.90;;;;;;5039471;28;20029;-67
2022/09/15 09:55:41;;;;;;;11.05;6.03;;;18.70;99.90;;;;;;5047250;28;20051;-68
2022/09/15 09:58:18;;;;;;;10.38;5.93;;;18.80;99.90;;;;;;5034665;28;20025;-67
2022/09/15 10:00:44;;;;;;;10.10;3.78;;;18.80;99.90;;;;;;5030810;28;20108;-67
2022/09/15 10:03:25;;;;;;;6.93;2.92;;;18.80;99.90;;;;;;5038631;28;20101;-67
2022/09/15 10:06:06;;;;;;;6.05;2.53;;;18.90;99.90;;;;;;5037152;28;20037;-67
2022/09/15 10:08:32;;;;;;;10.98;4.32;;;18.90;99.90;;;;;;5041349;28;20036;-68
2022/09/15 10:11:07;;;;;;;10.98;4.05;;;18.90;99.90;;;;;;5035052;28;20017;-67
2022/09/15 10:13:51;;;;;;;5.07;4.07;;;18.90;99.90;;;;;;5032209;28;20037;-69
2022/09/15 10:16:18;;;;;;;8.10;4.10;;;19.00;99.90;;;;;;5032722;28;20382;-68
2022/09/15 10:18:44;;;;;;;7.68;3.42;;;19.10;99.90;;;;;;5040115;28;20028;-68
2022/09/15 10:21:13;;;;;;;9.40;3.25;;;19.10;99.90;;;;;;5037003;28;20022;-70
2022/09/15 10:23:39;;;;;;;8.85;2.70;;;19.00;99.90;;;;;;5036291;28;20105;-69
2022/09/15 10:26:18;;;;;;;7.93;2.70;;;19.10;99.90;;;;;;5036602;28;20476;-69
2022/09/15 10:29:02;;;;;;;7.35;2.50;;;19.20;99.90;;;;;;5032770;28;20076;-69
2022/09/15 10:31:31;;;;;;;8.13;2.63;;;19.40;99.90;;;;;;5045523;28;20039;-69
2022/09/15 10:33:57;;;;;;;7.28;2.72;;;19.40;99.90;;;;;;5030108;28;20029;-69
2022/09/15 10:36:29;;;;;;;7.55;2.78;;;19.40;99.90;;;;;;5037077;28;20366;-69
2022/09/15 10:38:57;;;;;;;7.57;2.70;;;19.40;99.90;;;;;;5038467;28;20072;-69
2022/09/15 10:41:27;;;;;;;6.45;3.03;;;19.40;99.90;;;;;;5045573;28;20064;-70
2022/09/15 10:44:27;;;;;;;3.60;1.70;;;19.40;99.90;;;;;;5034019;28;20052;-70
2022/09/15 10:47:11;;;;;;;6.78;2.15;;;19.30;99.90;;;;;;5040356;28;20061;-70
2022/09/15 10:50:03;;;;;;;5.18;1.70;;;19.20;99.90;;;;;;5047904;28;20063;-69
2022/09/15 10:52:40;;;;;;;4.40;1.60;;;19.20;99.90;;;;;;5024106;28;20086;-69
2022/09/15 10:55:11;;;;;;;4.03;1.55;;;19.20;99.90;;;;;;5035553;28;20018;-69
2022/09/15 10:57:46;;;;;;;8.75;1.77;;;19.20;99.90;;;;;;5032966;28;20080;-69
2022/09/15 11:00:19;;;;;;;4.90;1.70;;;19.10;99.90;;;;;;5049294;28;20033;-70
2022/09/15 11:03:09;;;;;;;6.13;1.90;;;19.20;99.90;;;;;;5042100;28;20071;-70
2022/09/15 11:06:00;;;;;;;3.38;1.42;;;19.10;99.90;;;;;;5038039;28;20474;-69
2022/09/15 11:08:50;;;;;;;4.65;1.33;;;19.10;99.90;;;;;;5026043;28;20041;-70
2022/09/15 11:11:43;;;;;;;7.28;2.17;;;19.20;99.90;;;;;;5046305;28;20032;-69
2022/09/15 11:14:27;;;;;;;6.72;1.92;;;18.90;99.90;;;;;;5033686;28;20063;-69
2022/09/15 11:17:40;;;;;;;5.97;2.30;;;18.90;99.90;;;;;;5042917;28;20172;-69
2022/09/15 11:20:43;;;;;;;6.20;2.20;;;18.90;99.90;;;;;;4998563;28;20594;-69
2022/09/15 11:23:16;;;;;;;3.88;1.65;;;18.90;99.90;;;;;;5011975;28;20041;-70
2022/09/15 11:25:47;;;;;;;5.60;1.80;;;18.80;99.90;;;;;;5032782;28;20535;-69
2022/09/15 11:28:26;;;;;;;4.88;1.83;;;18.90;99.90;;;;;;5038707;28;20020;-69
2022/09/15 11:31:02;;;;;;;8.27;2.47;;;18.70;99.90;;;;;;5042952;28;20431;-68
2022/09/15 11:33:36;;;;;;;8.55;2.80;;;18.50;99.90;;;;;;5038571;28;20029;-69
2022/09/15 11:36:14;;;;;;;13.27;2.92;;;18.40;99.90;;;;;;5021038;28;20049;-68
2022/09/15 11:38:51;;;;;;;6.90;2.20;;;18.30;99.90;;;;;;5045330;28;20031;-68
2022/09/15 11:41:23;;;;;;;10.63;2.88;;;18.20;99.90;;;;;;5039262;28;20025;-67
2022/09/15 11:44:15;;;;;;;10.82;3.28;;;18.10;99.90;;;;;;5036464;28;20477;-68
2022/09/15 11:47:06;;;;;;;8.95;2.85;;;18.20;99.90;;;;;;5044033;28;20790;-66
2022/09/15 11:49:42;;;;;;;7.38;2.88;;;18.20;99.90;;;;;;5032379;28;20059;-68
2022/09/15 11:52:35;;;;;;;8.50;2.88;;;18.30;99.90;;;;;;5033044;28;20022;-67
2022/09/15 11:55:22;;;;;;;5.07;2.55;;;18.40;99.90;;;;;;5032774;28;20109;-72
2022/09/15 11:58:27;;;;;;;7.22;2.78;;;18.50;99.90;;;;;;5031956;28;20075;-68
2022/09/15 12:00:59;;;;;;;3.85;2.03;;;18.40;99.90;;;;;;5031850;28;20458;-68
2022/09/15 12:03:31;;;;;;;8.15;2.53;;;18.40;99.90;;;;;;5030282;28;20462;-68
2022/09/15 12:06:05;;;;;;;5.35;2.13;;;18.40;99.90;;;;;;5033117;28;20615;-70
2022/09/15 12:08:52;;;;;;;9.65;2.63;;;18.40;99.90;;;;;;5031672;28;20017;-68
2022/09/15 12:11:22;;;;;;;6.93;2.50;;;18.40;99.90;;;;;;5046589;28;20029;-68
2022/09/15 12:13:49;;;;;;;7.25;2.90;;;18.40;99.90;;;;;;5035665;28;20034;-68
2022/09/15 12:16:15;;;;;;;6.22;3.03;;;18.30;99.90;;;;;;5047389;28;20025;-68
2022/09/15 12:18:55;;;;;;;11.65;3.05;;;18.40;99.90;;;;;;5037271;28;20020;-68
2022/09/15 12:21:38;;;;;;;4.53;2.67;;;18.40;99.90;;;;;;5034785;28;20485;-69
2022/09/15 12:24:16;;;;;;;7.90;2.97;;;18.40;99.90;;;;;;5032618;28;20086;-68
2022/09/15 12:26:45;;;;;;;7.25;2.85;;;18.40;99.90;;;;;;5030947;28;20041;-68
2022/09/15 12:29:25;;;;;;;8.77;2.55;;;18.40;99.90;;;;;;5034896;28;20052;-69
2022/09/15 12:32:10;;;;;;;6.75;2.35;;;18.40;99.90;;;;;;5035434;28;20033;-67
2022/09/15 12:34:37;;;;;;;4.75;3.22;;;18.50;99.90;;;;;;5031410;28;20032;-68
2022/09/15 12:37:10;;;;;;;7.20;3.40;;;18.40;99.90;;;;;;5043663;28;20025;-69
2022/09/15 12:39:43;;;;;;;6.05;2.60;;;18.50;99.90;;;;;;5037060;28;20025;-67
2022/09/15 12:42:18;;;;;;;5.38;2.53;;;18.40;99.90;;;;;;5021764;28;20024;-68
2022/09/15 12:44:46;;;;;;;7.68;2.00;;;18.40;99.90;;;;;;5030691;28;20037;-68
2022/09/15 12:47:47;;;;;;;4.45;1.65;;;18.40;99.90;;;;;;5038966;28;20029;-70
2022/09/15 12:50:13;;;;;;;5.45;1.90;;;18.60;99.90;;;;;;5027195;28;20094;-68
2022/09/15 12:53:10;;;;;;;6.45;2.30;;;18.60;99.90;;;;;;5039601;28;20037;-68